Time;durP1;ratioP1;P1;durP2;ratioP2;P2;SDS_P1;SDS_P2;PMS_P1;PMS_P2;Temp;Humidity;BMP_temperature;BMP_pressure;BME280_temperature;BME280_humidity;BME280_pressure;Samples;Min_cycle;Max_cycle;Signal;HPM_P1;HPM_P2
2022/03/18 00:00:38;;;;;;;11.75;5.58;;;;;;;-5.38;61.35;103101.27;1860091;77;20931;-72
2022/03/18 00:03:05;;;;;;;7.37;4.67;;;;;;;-5.44;61.51;103107.37;1860019;77;20875;-72
2022/03/18 00:05:35;;;;;;;10.78;5.70;;;;;;;-5.46;61.83;103104.73;1859979;77;21156;-73
2022/03/18 00:08:02;;;;;;;7.20;4.83;;;;;;;-5.41;61.70;103104.94;1829852;77;21417;-72
2022/03/18 00:10:31;;;;;;;8.30;5.58;;;;;;;-5.35;61.82;103109.06;1859882;77;20943;-73
2022/03/18 00:12:59;;;;;;;7.17;4.65;;;;;;;-5.28;61.57;103105.97;1859988;77;20923;-72
2022/03/18 00:15:27;;;;;;;8.38;5.15;;;;;;;-5.26;61.25;103107.33;1860015;77;20927;-73
2022/03/18 00:17:54;;;;;;;6.87;4.35;;;;;;;-5.33;61.21;103112.98;1860132;77;20984;-72
2022/03/18 00:20:21;;;;;;;6.72;4.25;;;;;;;-5.34;61.37;103112.48;1859861;76;20907;-72
2022/03/18 00:22:49;;;;;;;6.37;4.28;;;;;;;-5.39;61.33;103111.00;1859876;77;21010;-73
2022/03/18 00:25:18;;;;;;;7.10;4.83;;;;;;;-5.48;61.47;103110.58;1859820;77;20954;-73
2022/03/18 00:27:45;;;;;;;8.15;5.05;;;;;;;-5.52;61.72;103110.83;1859972;77;20843;-72
2022/03/18 00:30:14;;;;;;;8.85;6.08;;;;;;;-5.56;61.80;103111.89;1859954;76;21159;-73
2022/03/18 00:32:41;;;;;;;10.13;5.72;;;;;;;-5.58;62.10;103112.23;1859856;77;20879;-71
2022/03/18 00:35:10;;;;;;;8.60;5.33;;;;;;;-5.56;61.82;103109.34;1859878;77;20930;-71
2022/03/18 00:37:38;;;;;;;7.05;5.22;;;;;;;-5.61;61.91;103110.41;1859866;77;20935;-71
2022/03/18 00:40:07;;;;;;;9.28;4.97;;;;;;;-5.62;62.07;103109.54;1859932;77;21456;-72
2022/03/18 00:42:34;;;;;;;8.75;5.78;;;;;;;-5.56;62.09;103116.60;1829493;77;21329;-72
2022/03/18 00:45:01;;;;;;;9.73;5.37;;;;;;;-5.49;61.86;103122.50;1859945;76;20947;-73
2022/03/18 00:53:02;;;;;;;7.92;5.62;;;;;;;-5.55;62.01;103124.77;1859975;76;20867;-71
2022/03/18 00:55:29;;;;;;;10.95;5.15;;;;;;;-5.59;61.77;103122.86;1858778;76;21792;-72
2022/03/18 00:57:56;;;;;;;9.70;5.53;;;;;;;-5.69;61.68;103115.55;1859838;77;20915;-72
2022/03/18 01:00:23;;;;;;;9.15;5.10;;;;;;;-5.74;62.13;103114.06;1859859;77;20867;-72
2022/03/18 01:02:50;;;;;;;9.60;5.15;;;;;;;-5.77;62.02;103118.17;1859928;76;20910;-73
2022/03/18 01:05:19;;;;;;;8.13;5.75;;;;;;;-5.90;62.11;103109.91;1860051;77;20923;-73
2022/03/18 01:07:46;;;;;;;6.55;5.08;;;;;;;-5.97;62.42;103114.69;1859972;77;21067;-74
2022/03/18 01:10:15;;;;;;;7.08;5.53;;;;;;;-5.98;62.72;103118.93;1859928;76;20915;-72
2022/03/18 01:12:42;;;;;;;6.25;4.25;;;;;;;-5.95;62.74;103102.88;1859963;77;20872;-72
2022/03/18 01:15:09;;;;;;;9.65;5.22;;;;;;;-5.89;62.76;103108.22;1860200;77;21053;-72
2022/03/18 01:17:38;;;;;;;9.60;5.78;;;;;;;-5.92;62.64;103107.67;1860016;77;21467;-71
2022/03/18 01:20:06;;;;;;;7.53;5.12;;;;;;;-5.94;62.71;103108.00;1859964;77;21891;-72
2022/03/18 01:22:33;;;;;;;10.10;6.35;;;;;;;-5.97;62.72;103109.17;1859911;76;20899;-72
2022/03/18 01:25:00;;;;;;;6.67;4.85;;;;;;;-6.03;62.89;103107.59;1859853;77;20824;-72
2022/03/18 01:27:28;;;;;;;8.65;5.60;;;;;;;-6.04;62.86;103108.41;1859819;77;20953;-72
2022/03/18 01:29:55;;;;;;;8.33;5.95;;;;;;;-6.12;62.98;103108.02;1860437;77;20832;-72
2022/03/18 01:32:21;;;;;;;8.55;6.25;;;;;;;-6.09;63.30;103106.91;1859971;77;21117;-71
2022/03/18 01:34:48;;;;;;;9.58;5.85;;;;;;;-6.00;63.29;103108.14;1859797;77;20875;-72
2022/03/18 01:37:16;;;;;;;8.85;5.50;;;;;;;-5.95;62.99;103114.37;1859969;77;21459;-71
2022/03/18 01:39:44;;;;;;;10.90;5.08;;;;;;;-6.03;62.88;103106.72;1859946;77;21385;-72
2022/03/18 01:42:11;;;;;;;11.10;6.60;;;;;;;-6.11;63.09;103114.03;1860433;77;21503;-72
2022/03/18 01:44:41;;;;;;;10.28;5.47;;;;;;;-6.14;63.26;103104.92;1860068;77;21578;-72
2022/03/18 01:47:10;;;;;;;8.48;4.87;;;;;;;-6.19;63.32;103111.48;1859798;77;20887;-73
2022/03/18 01:49:37;;;;;;;8.88;5.25;;;;;;;-6.26;63.43;103108.63;1860155;77;20887;-72
2022/03/18 01:52:06;;;;;;;9.68;6.20;;;;;;;-6.28;63.58;103111.50;1860182;77;20922;-72
2022/03/18 01:54:46;;;;;;;8.80;4.92;;;;;;;-6.29;63.74;103107.59;1860210;77;20910;-70
2022/03/18 01:57:23;;;;;;;7.70;5.42;;;;;;;-6.27;63.81;103108.17;1851255;76;21144;-72
2022/03/18 01:59:51;;;;;;;9.45;5.22;;;;;;;-6.23;64.02;103114.69;1849278;77;20968;-71
2022/03/18 02:02:19;;;;;;;11.70;6.85;;;;;;;-6.19;63.90;103126.41;1849251;77;20917;-72
2022/03/18 02:04:47;;;;;;;9.30;5.58;;;;;;;-6.12;63.83;103116.09;1849185;76;20925;-72
2022/03/18 02:07:15;;;;;;;9.38;6.12;;;;;;;-6.08;63.69;103130.36;1849452;77;20850;-72
2022/03/18 02:09:47;;;;;;;7.05;5.33;;;;;;;-6.05;63.46;103134.73;1849330;77;20874;-71
2022/03/18 02:12:15;;;;;;;11.10;5.78;;;;;;;-6.05;63.59;103139.84;1849269;76;20976;-71
2022/03/18 02:14:47;;;;;;;9.30;4.60;;;;;;;-6.07;63.32;103135.06;1849227;76;20972;-73
2022/03/18 02:17:17;;;;;;;7.65;4.85;;;;;;;-6.14;63.34;103143.23;1849257;77;20968;-71
2022/03/18 02:19:47;;;;;;;7.85;5.67;;;;;;;-6.22;63.58;103136.85;1849319;77;21387;-72
2022/03/18 02:22:18;;;;;;;12.13;7.62;;;;;;;-6.31;63.71;103137.30;1849228;77;21780;-72
2022/03/18 02:24:47;;;;;;;8.83;5.80;;;;;;;-6.33;63.81;103137.22;1849265;77;21021;-72
2022/03/18 02:27:14;;;;;;;9.38;5.10;;;;;;;-6.29;63.99;103149.34;1849242;77;20841;-72
2022/03/18 02:29:41;;;;;;;10.40;5.87;;;;;;;-6.26;63.86;103148.20;1849315;77;20893;-72
2022/03/18 02:32:09;;;;;;;7.15;4.92;;;;;;;-6.32;63.79;103150.44;1849358;77;21017;-72
2022/03/18 02:34:39;;;;;;;7.50;5.08;;;;;;;-6.35;64.17;103150.70;1849185;77;21812;-73
2022/03/18 02:37:05;;;;;;;7.42;5.22;;;;;;;-6.28;64.27;103154.91;1849103;77;20949;-71
2022/03/18 02:39:34;;;;;;;8.18;4.80;;;;;;;-6.29;64.04;103162.11;1849746;77;20894;-73
2022/03/18 02:42:01;;;;;;;10.75;5.60;;;;;;;-6.30;64.11;103159.47;1849281;76;20854;-71
2022/03/18 02:44:28;;;;;;;11.40;5.95;;;;;;;-6.26;64.21;103157.55;1849227;76;20882;-72
2022/03/18 02:46:58;;;;;;;9.80;6.35;;;;;;;-6.24;64.17;103166.16;1849339;77;21626;-72
2022/03/18 02:49:25;;;;;;;7.62;5.15;;;;;;;-6.18;64.38;103165.58;1849466;77;20842;-71
2022/03/18 02:51:54;;;;;;;10.20;6.15;;;;;;;-6.12;64.20;103171.86;1849333;77;21538;-72
2022/03/18 02:54:22;;;;;;;9.40;5.12;;;;;;;-6.03;63.99;103175.28;1849301;77;20858;-72
2022/03/18 02:56:49;;;;;;;12.18;6.00;;;;;;;-6.00;63.76;103183.12;1841526;75;20926;-73
2022/03/18 02:59:16;;;;;;;10.45;5.25;;;;;;;-6.00;63.97;103180.94;1834748;77;21038;-73
2022/03/18 03:01:43;;;;;;;9.98;5.58;;;;;;;-5.90;63.94;103185.27;1834952;78;20902;-71
2022/03/18 03:04:11;;;;;;;12.50;6.95;;;;;;;-5.77;63.80;103182.05;1834669;77;20894;-72
2022/03/18 03:09:25;;;;;;;7.03;5.17;;;;;;;-5.62;63.06;103182.38;1834839;77;20871;-70
2022/03/18 03:11:53;;;;;;;10.98;6.17;;;;;;;-5.69;62.60;103188.39;1834847;77;20910;-71
2022/03/18 03:14:20;;;;;;;11.20;5.53;;;;;;;-5.89;62.80;103186.14;1835179;78;21329;-72
2022/03/18 03:16:47;;;;;;;10.80;6.08;;;;;;;-5.99;63.01;103196.34;1834738;77;20922;-71
2022/03/18 03:19:16;;;;;;;12.40;5.90;;;;;;;-6.08;63.23;103193.34;1834787;78;21467;-74
2022/03/18 03:21:43;;;;;;;9.63;6.12;;;;;;;-6.07;63.65;103197.26;1834799;77;20902;-72
2022/03/18 03:24:10;;;;;;;10.80;5.90;;;;;;;-6.02;63.63;103191.47;1834804;77;21305;-73
2022/03/18 03:26:37;;;;;;;13.93;7.42;;;;;;;-5.95;63.49;103193.56;1834750;78;20891;-73
2022/03/18 03:29:04;;;;;;;9.53;5.65;;;;;;;-5.91;63.23;103200.55;1834755;78;20867;-72
2022/03/18 03:31:31;;;;;;;10.23;5.03;;;;;;;-5.98;63.11;103203.61;1834717;78;20894;-72
2022/03/18 03:33:58;;;;;;;8.20;6.10;;;;;;;-6.06;63.06;103204.52;1834740;77;20946;-72
2022/03/18 03:36:25;;;;;;;9.33;5.50;;;;;;;-6.17;63.17;103201.82;1834631;77;21095;-73
2022/03/18 03:38:52;;;;;;;9.95;5.28;;;;;;;-6.27;63.33;103207.75;1834941;76;20859;-72
2022/03/18 03:41:21;;;;;;;9.93;5.28;;;;;;;-6.38;63.56;103205.05;1834708;77;20910;-71
2022/03/18 03:43:48;;;;;;;8.23;5.40;;;;;;;-6.43;63.84;103212.84;1834739;77;21444;-73
2022/03/18 03:46:17;;;;;;;8.15;4.78;;;;;;;-6.47;63.94;103210.92;1834831;77;20930;-72
2022/03/18 03:48:44;;;;;;;12.85;6.12;;;;;;;-6.52;64.04;103218.34;1834770;76;21239;-73
2022/03/18 03:51:12;;;;;;;10.58;5.47;;;;;;;-6.55;64.13;103219.47;1834734;78;20963;-72
2022/03/18 03:53:39;;;;;;;8.83;5.33;;;;;;;-6.62;64.19;103222.50;1834799;77;21368;-73
2022/03/18 03:56:06;;;;;;;12.88;6.42;;;;;;;-6.70;64.39;103215.70;1836075;77;20946;-72
2022/03/18 03:58:34;;;;;;;11.10;6.03;;;;;;;-6.68;64.64;103228.55;1849274;77;20834;-73
2022/03/18 04:01:01;;;;;;;9.80;5.12;;;;;;;-6.61;64.76;103233.17;1849255;77;21476;-73
2022/03/18 04:03:28;;;;;;;8.45;5.33;;;;;;;-6.60;64.53;103240.42;1849130;77;21457;-73
2022/03/18 04:05:55;;;;;;;10.50;5.90;;;;;;;-6.68;64.68;103247.28;1849261;77;20925;-73
2022/03/18 04:08:22;;;;;;;11.60;6.05;;;;;;;-6.67;64.97;103249.43;1849130;77;20980;-72
2022/03/18 04:10:54;;;;;;;13.05;6.22;;;;;;;-6.61;64.96;103260.37;1849124;77;20940;-74
2022/03/18 04:13:21;;;;;;;8.45;5.80;;;;;;;-6.61;64.85;103263.80;1849189;77;21241;-72
2022/03/18 04:15:48;;;;;;;11.97;5.90;;;;;;;-6.61;64.92;103268.91;1849306;77;20933;-73
2022/03/18 04:18:15;;;;;;;7.40;5.05;;;;;;;-6.57;65.14;103274.66;1849239;77;20941;-73
2022/03/18 04:20:42;;;;;;;8.23;5.80;;;;;;;-6.47;64.97;103278.19;1849267;77;20929;-72
2022/03/18 04:23:08;;;;;;;9.20;5.00;;;;;;;-6.38;64.99;103278.17;1849685;77;20921;-73
2022/03/18 04:25:36;;;;;;;9.90;5.40;;;;;;;-6.29;64.68;103285.94;1849218;76;21535;-72
2022/03/18 04:28:04;;;;;;;10.08;5.62;;;;;;;-6.26;64.34;103291.19;1849073;77;20881;-72
2022/03/18 04:30:31;;;;;;;10.28;6.12;;;;;;;-6.29;64.20;103288.86;1850140;77;20917;-72
2022/03/18 04:32:59;;;;;;;9.98;5.22;;;;;;;-6.31;64.25;103286.25;1849250;77;21490;-71
2022/03/18 04:35:26;;;;;;;6.22;4.85;;;;;;;-6.25;64.25;103298.45;1849512;77;20933;-73
2022/03/18 04:37:53;;;;;;;8.83;6.25;;;;;;;-6.21;64.09;103295.66;1849188;77;21147;-74
2022/03/18 04:40:20;;;;;;;7.87;5.87;;;;;;;-6.22;64.05;103295.17;1849513;77;20921;-72
2022/03/18 04:42:47;;;;;;;7.72;5.50;;;;;;;-6.22;64.20;103297.72;1849131;77;20980;-72
2022/03/18 04:45:16;;;;;;;9.73;5.62;;;;;;;-6.20;64.22;103294.48;1849263;77;21557;-72
2022/03/18 04:47:43;;;;;;;12.95;6.60;;;;;;;-6.15;64.16;103298.55;1849203;77;20917;-73
2022/03/18 04:50:10;;;;;;;12.37;6.25;;;;;;;-6.13;64.33;103290.16;1849162;77;21601;-73
2022/03/18 04:52:37;;;;;;;12.85;7.10;;;;;;;-6.00;64.37;103298.06;1849159;77;20841;-73
2022/03/18 04:55:07;;;;;;;12.37;6.25;;;;;;;-5.87;64.23;103299.13;1849200;77;21351;-73
2022/03/18 04:57:36;;;;;;;7.90;5.37;;;;;;;-5.73;64.03;103307.49;1855580;76;20938;-73
2022/03/18 05:00:04;;;;;;;9.05;5.62;;;;;;;-5.65;63.47;103312.60;1860024;77;20868;-73
2022/03/18 05:02:32;;;;;;;9.95;5.45;;;;;;;-5.70;63.36;103310.19;1859899;77;21148;-73
2022/03/18 05:04:59;;;;;;;10.43;6.05;;;;;;;-5.76;63.45;103317.95;1859787;77;21024;-73
2022/03/18 05:07:26;;;;;;;8.45;6.12;;;;;;;-5.81;63.67;103311.73;1860243;77;20915;-73
2022/03/18 05:09:55;;;;;;;9.00;5.72;;;;;;;-5.65;63.96;103321.92;1859816;77;20918;-74
2022/03/18 05:12:22;;;;;;;9.95;5.85;;;;;;;-5.40;63.93;103325.33;1859913;77;21325;-72
2022/03/18 05:14:51;;;;;;;6.42;5.10;;;;;;;-5.02;63.49;103325.03;1859867;77;20914;-71
2022/03/18 05:17:18;;;;;;;11.63;5.70;;;;;;;-4.81;62.04;103320.04;1859901;77;20923;-73
2022/03/18 05:19:45;;;;;;;10.15;5.42;;;;;;;-4.79;61.54;103329.54;1860033;77;20926;-73
2022/03/18 05:22:13;;;;;;;8.60;5.78;;;;;;;-4.66;61.70;103327.16;1860080;77;20864;-73
2022/03/18 05:24:41;;;;;;;8.90;5.37;;;;;;;-4.44;61.34;103325.59;1860021;77;20894;-74
2022/03/18 05:27:07;;;;;;;10.35;5.85;;;;;;;-4.31;60.22;103328.28;1860183;77;21151;-73
2022/03/18 05:29:35;;;;;;;9.33;6.72;;;;;;;-4.29;59.48;103325.02;1859960;76;20954;-73
2022/03/18 05:32:04;;;;;;;9.90;5.37;;;;;;;-4.32;59.48;103329.11;1860247;77;21006;-73
2022/03/18 05:34:32;;;;;;;12.60;6.62;;;;;;;-4.24;59.11;103339.30;1860003;77;20887;-72
2022/03/18 05:36:59;;;;;;;7.65;5.25;;;;;;;-4.29;59.14;103335.26;1859977;76;20969;-73
2022/03/18 05:39:26;;;;;;;9.55;6.30;;;;;;;-4.29;58.95;103338.20;1860053;76;21055;-74
2022/03/18 05:41:53;;;;;;;11.83;5.95;;;;;;;-4.27;58.88;103347.73;1859977;77;21389;-73
2022/03/18 05:44:20;;;;;;;6.20;4.42;;;;;;;-4.28;58.84;103348.52;1860099;77;21451;-73
2022/03/18 05:46:47;;;;;;;10.25;5.60;;;;;;;-4.30;58.63;103351.42;1860063;77;21459;-72
2022/03/18 05:49:14;;;;;;;10.23;6.47;;;;;;;-4.44;58.46;103350.80;1860139;76;20872;-74
2022/03/18 05:51:41;;;;;;;10.32;5.45;;;;;;;-4.53;59.01;103354.22;1860334;77;21200;-73
2022/03/18 05:54:08;;;;;;;10.20;5.55;;;;;;;-4.44;59.04;103348.23;1859951;76;20923;-73
2022/03/18 05:56:52;;;;;;;9.30;5.37;;;;;;;-4.41;58.83;103357.73;1859321;77;20922;-72
2022/03/18 05:59:23;;;;;;;7.45;3.75;;;;;;;-4.32;58.73;103366.25;1849226;76;20962;-73
2022/03/18 06:01:53;;;;;;;9.23;5.22;;;;;;;-4.17;58.60;103359.27;1849242;77;20904;-73
2022/03/18 06:04:20;;;;;;;8.83;4.90;;;;;;;-4.03;58.45;103366.28;1849341;76;21165;-73
2022/03/18 06:06:47;;;;;;;9.33;4.90;;;;;;;-3.88;58.27;103369.53;1849288;77;20948;-72
2022/03/18 06:12:05;;;;;;;6.75;5.10;;;;;;;-3.67;57.94;103374.70;1849297;77;20889;-73
2022/03/18 06:14:32;;;;;;;7.20;4.75;;;;;;;-3.55;57.43;103378.22;1849203;77;20842;-73
2022/03/18 06:17:02;;;;;;;8.98;5.08;;;;;;;-3.52;57.31;103383.47;1849182;77;21127;-74
2022/03/18 06:19:30;;;;;;;9.88;5.00;;;;;;;-3.61;56.66;103387.80;1849271;77;20921;-73
2022/03/18 06:21:58;;;;;;;6.60;4.58;;;;;;;-3.79;56.82;103397.25;1849411;77;20918;-74
2022/03/18 06:24:25;;;;;;;7.87;5.15;;;;;;;-3.77;57.42;103403.33;1849680;77;20917;-73
2022/03/18 06:26:52;;;;;;;5.30;4.28;;;;;;;-3.67;57.36;103402.91;1849291;77;20873;-73
2022/03/18 06:29:19;;;;;;;8.58;4.70;;;;;;;-3.60;56.69;103404.05;1849431;77;21093;-73
2022/03/18 06:31:46;;;;;;;9.73;5.00;;;;;;;-3.68;56.54;103402.86;1849263;77;20999;-73
2022/03/18 06:34:14;;;;;;;8.40;4.90;;;;;;;-3.77;56.77;103402.92;1849262;77;20878;-73
2022/03/18 06:36:41;;;;;;;8.38;4.97;;;;;;;-3.78;57.02;103399.89;1849672;77;21454;-73
2022/03/18 06:39:08;;;;;;;7.83;5.37;;;;;;;-3.52;57.14;103399.27;1849647;77;20877;-73
2022/03/18 06:41:37;;;;;;;7.22;4.97;;;;;;;-3.06;56.41;103397.37;1849202;77;21244;-73
2022/03/18 06:44:06;;;;;;;10.82;5.80;;;;;;;-2.46;55.33;103397.19;1849476;77;20878;-74
2022/03/18 06:46:36;;;;;;;8.20;5.53;;;;;;;-1.85;53.93;103396.03;1849460;77;20889;-74
2022/03/18 06:49:04;;;;;;;8.38;6.33;;;;;;;-1.10;52.79;103392.20;1849196;77;21434;-73
2022/03/18 06:51:31;;;;;;;8.50;5.53;;;;;;;-0.35;52.04;103390.72;1849230;77;20909;-73
2022/03/18 06:53:59;;;;;;;6.25;5.65;;;;;;;0.27;49.04;103392.46;1849137;76;21889;-75
2022/03/18 06:56:27;;;;;;;10.30;5.95;;;;;;;0.62;47.15;103393.41;1849107;77;20900;-74
2022/03/18 06:58:54;;;;;;;7.95;6.60;;;;;;;0.82;46.47;103396.12;1836350;77;20944;-74
2022/03/18 07:01:21;;;;;;;9.45;5.75;;;;;;;0.82;46.36;103392.24;1834746;78;20880;-74
2022/03/18 07:03:51;;;;;;;8.43;5.60;;;;;;;0.58;46.33;103390.32;1834786;77;20859;-74
2022/03/18 07:06:19;;;;;;;8.23;5.45;;;;;;;0.41;46.47;103388.14;1834827;77;21320;-74
2022/03/18 07:08:46;;;;;;;7.72;5.75;;;;;;;0.45;46.53;103401.16;1834848;77;21543;-74
2022/03/18 07:11:13;;;;;;;8.70;5.75;;;;;;;0.45;45.97;103399.86;1834701;77;21334;-74
2022/03/18 07:13:43;;;;;;;10.65;6.78;;;;;;;0.40;45.74;103399.71;1834608;77;20922;-74
2022/03/18 07:18:57;;;;;;;8.35;5.65;;;;;;;0.51;45.50;103412.91;1834680;77;20946;-75
2022/03/18 07:21:24;;;;;;;9.60;5.62;;;;;;;1.00;45.83;103414.18;1834736;77;20828;-74
2022/03/18 07:23:51;;;;;;;9.13;5.90;;;;;;;1.63;44.18;103414.39;1834731;77;20915;-73
2022/03/18 07:26:17;;;;;;;10.20;6.78;;;;;;;2.26;43.28;103417.00;1834653;77;20958;-74
2022/03/18 07:28:44;;;;;;;8.68;5.87;;;;;;;2.80;42.16;103403.34;1834656;77;20891;-74
2022/03/18 07:31:11;;;;;;;8.90;6.30;;;;;;;3.31;41.43;103411.52;1834689;77;21547;-75
2022/03/18 07:33:40;;;;;;;8.68;6.03;;;;;;;3.76;39.54;103411.27;1834696;77;20915;-74
2022/03/18 07:36:07;;;;;;;9.53;5.83;;;;;;;4.03;38.77;103405.14;1834732;77;20954;-73
2022/03/18 07:38:34;;;;;;;9.53;6.35;;;;;;;4.17;38.55;103401.41;1835153;77;20894;-75
2022/03/18 07:41:02;;;;;;;7.58;6.15;;;;;;;4.46;38.86;103402.16;1834892;78;21470;-73
2022/03/18 07:43:30;;;;;;;7.42;5.45;;;;;;;4.82;38.36;103404.67;1834685;78;21124;-73
2022/03/18 07:45:57;;;;;;;8.93;6.05;;;;;;;5.16;36.56;103401.94;1834598;78;21001;-74
2022/03/18 07:48:26;;;;;;;6.83;5.62;;;;;;;5.35;36.56;103399.02;1835053;76;21325;-73
2022/03/18 07:50:53;;;;;;;8.75;5.15;;;;;;;5.56;37.11;103403.50;1834677;77;20887;-73
2022/03/18 07:53:19;;;;;;;9.73;5.37;;;;;;;5.74;36.15;103402.30;1835074;77;20954;-74
2022/03/18 07:55:47;;;;;;;6.87;5.03;;;;;;;5.95;35.66;103408.05;1834711;77;21641;-74
2022/03/18 07:58:14;;;;;;;8.85;6.08;;;;;;;6.13;34.82;103408.55;1841609;77;20916;-73
2022/03/18 08:00:43;;;;;;;10.70;6.22;;;;;;;6.05;34.63;103415.90;1849069;77;20885;-74
2022/03/18 08:03:11;;;;;;;9.55;6.10;;;;;;;6.07;34.69;103413.77;1849101;77;20898;-72
2022/03/18 08:05:40;;;;;;;9.48;6.17;;;;;;;6.31;34.82;103407.74;1849205;77;20972;-74
2022/03/18 08:08:07;;;;;;;10.28;5.97;;;;;;;6.69;34.12;103403.03;1849205;77;21294;-73
2022/03/18 08:10:36;;;;;;;7.75;6.25;;;;;;;6.86;33.44;103405.67;1849110;77;21375;-74
2022/03/18 08:13:03;;;;;;;9.73;6.65;;;;;;;6.80;33.35;103393.92;1849024;77;20846;-73
2022/03/18 08:15:30;;;;;;;8.65;6.10;;;;;;;6.63;34.21;103392.63;1849126;77;20885;-73
2022/03/18 08:17:58;;;;;;;6.78;6.10;;;;;;;6.51;34.14;103405.19;1849129;77;20968;-75
2022/03/18 08:20:25;;;;;;;8.53;6.17;;;;;;;6.68;34.36;103396.53;1849661;77;21936;-75
2022/03/18 08:22:52;;;;;;;7.40;5.72;;;;;;;7.08;33.95;103400.47;1849265;77;20893;-74
2022/03/18 08:25:20;;;;;;;7.58;5.22;;;;;;;7.44;33.24;103407.37;1849225;77;20940;-72
2022/03/18 08:27:49;;;;;;;8.80;5.42;;;;;;;7.75;32.12;103403.38;1849058;77;21552;-73
2022/03/18 08:30:16;;;;;;;7.83;5.28;;;;;;;7.67;31.80;103396.44;1849145;77;20877;-75
2022/03/18 08:32:45;;;;;;;10.60;5.15;;;;;;;7.60;32.02;103401.67;1849034;77;21159;-73
2022/03/18 08:35:12;;;;;;;6.05;4.83;;;;;;;7.36;32.00;103395.65;1849037;77;20873;-75
2022/03/18 08:37:58;;;;;;;9.75;6.03;;;;;;;7.05;31.79;103403.50;1849082;77;20917;-73
2022/03/18 08:40:32;;;;;;;7.22;6.53;;;;;;;6.97;32.14;103405.23;1849304;77;20905;-73
2022/03/18 08:43:09;;;;;;;7.40;5.25;;;;;;;6.82;32.28;103398.70;1849157;77;20834;-73
2022/03/18 08:45:36;;;;;;;7.80;5.37;;;;;;;6.78;32.38;103406.98;1849089;77;21676;-73
2022/03/18 08:48:04;;;;;;;6.60;5.55;;;;;;;6.70;32.42;103410.01;1849473;77;20905;-74
2022/03/18 08:50:31;;;;;;;6.58;5.33;;;;;;;6.54;32.82;103410.42;1849014;77;21447;-73
2022/03/18 08:52:58;;;;;;;6.08;4.87;;;;;;;6.64;32.20;103405.64;1849109;77;21418;-73
2022/03/18 08:55:26;;;;;;;11.00;5.20;;;;;;;6.69;32.28;103399.56;1849224;77;21541;-74
2022/03/18 08:57:57;;;;;;;6.45;5.10;;;;;;;6.62;32.38;103403.46;1845456;77;21124;-75
2022/03/18 09:00:24;;;;;;;7.97;5.37;;;;;;;6.36;32.48;103406.04;1834649;77;20879;-74
2022/03/18 09:02:52;;;;;;;7.47;6.28;;;;;;;6.00;34.32;103402.86;1834651;77;20847;-73
2022/03/18 09:05:19;;;;;;;8.23;4.90;;;;;;;5.61;35.20;103399.19;1834990;77;20935;-74
2022/03/18 09:07:47;;;;;;;8.63;5.42;;;;;;;5.26;35.03;103409.36;1834613;77;20859;-72
2022/03/18 09:12:47;;;;;;;7.05;4.58;;;;;;;4.83;35.22;103407.73;1816370;79;22466;-74
2022/03/18 09:15:16;;;;;;;7.70;5.20;;;;;;;4.85;35.37;103406.88;1789476;80;21246;-74
2022/03/18 09:17:43;;;;;;;11.70;5.50;;;;;;;4.87;35.30;103402.97;1789518;80;21849;-73
2022/03/18 09:20:10;;;;;;;7.15;5.50;;;;;;;5.07;35.10;103412.23;1789499;80;20856;-73
2022/03/18 09:22:37;;;;;;;7.58;5.25;;;;;;;5.34;34.81;103406.40;1789481;80;20919;-73
2022/03/18 09:25:05;;;;;;;6.05;4.75;;;;;;;5.64;34.47;103407.44;1789413;80;20952;-73
2022/03/18 09:27:32;;;;;;;5.90;4.22;;;;;;;6.06;33.66;103406.80;1789547;80;21302;-74
2022/03/18 09:30:00;;;;;;;6.55;4.90;;;;;;;6.23;33.04;103397.75;1789392;80;21116;-73
2022/03/18 09:32:28;;;;;;;6.50;4.72;;;;;;;6.38;32.68;103403.41;1789428;80;21364;-73
2022/03/18 09:34:56;;;;;;;13.40;7.05;;;;;;;6.27;33.46;103401.22;1789428;80;21018;-74
2022/03/18 09:37:23;;;;;;;5.72;5.05;;;;;;;6.16;33.64;103401.21;1789350;80;20896;-73
2022/03/18 09:39:51;;;;;;;7.95;5.67;;;;;;;5.67;34.81;103402.23;1789528;80;20919;-73
2022/03/18 09:42:18;;;;;;;7.37;5.37;;;;;;;5.05;35.63;103413.98;1789469;80;21150;-73
2022/03/18 09:44:45;;;;;;;7.78;4.58;;;;;;;4.64;36.36;103402.34;1789715;80;21480;-74
2022/03/18 09:47:12;;;;;;;10.10;5.22;;;;;;;4.31;37.00;103414.14;1789447;80;20900;-73
2022/03/18 09:49:39;;;;;;;8.68;5.50;;;;;;;3.82;37.41;103407.45;1789502;79;20892;-73
2022/03/18 09:52:07;;;;;;;7.53;5.87;;;;;;;3.24;38.55;103391.94;1789552;80;20955;-72
2022/03/18 09:54:34;;;;;;;7.90;5.75;;;;;;;2.87;40.01;103389.64;1789441;80;21214;-71
2022/03/18 09:57:04;;;;;;;7.10;4.97;;;;;;;2.47;40.63;103403.61;1789632;80;21406;-71
2022/03/18 09:59:31;;;;;;;7.67;4.55;;;;;;;2.08;41.48;103396.80;1789401;80;20935;-73
2022/03/18 10:02:27;;;;;;;7.53;4.70;;;;;;;1.82;42.27;103404.91;1789361;80;20963;-72
2022/03/18 10:05:06;;;;;;;13.70;5.42;;;;;;;1.79;42.10;103410.00;1789361;80;20892;-73
2022/03/18 10:07:33;;;;;;;4.65;4.15;;;;;;;1.74;41.99;103406.88;1789389;80;21653;-74
2022/03/18 10:10:08;;;;;;;6.55;4.62;;;;;;;1.82;41.53;103402.72;1789433;80;20927;-73
2022/03/18 10:12:38;;;;;;;7.12;3.80;;;;;;;1.86;41.74;103404.53;1778142;80;20940;-74
2022/03/18 10:15:15;;;;;;;6.42;4.20;;;;;;;1.99;41.13;103399.20;1775873;80;20861;-73
2022/03/18 10:17:49;;;;;;;8.38;5.10;;;;;;;2.03;41.18;103406.19;1776078;80;20880;-73
2022/03/18 10:20:36;;;;;;;8.73;4.40;;;;;;;2.15;40.70;103400.38;1775955;80;21836;-72
2022/03/18 10:23:19;;;;;;;7.47;4.60;;;;;;;2.45;40.18;103395.80;1775529;80;20919;-73
2022/03/18 10:25:56;;;;;;;6.97;4.15;;;;;;;2.74;39.76;103398.05;1769824;80;20885;-73
2022/03/18 10:28:43;;;;;;;8.10;4.17;;;;;;;2.78;39.28;103402.44;1775357;80;21406;-74
2022/03/18 10:31:18;;;;;;;10.03;4.08;;;;;;;2.61;39.54;103393.49;1775207;80;20932;-74
2022/03/18 10:39:37;;;;;;;5.87;3.55;;;;;;;3.28;39.65;103388.11;1775350;80;21363;-74
2022/03/18 10:42:09;;;;;;;;;;;;;;;3.82;39.37;103390.59;1777301;80;21448;-72
2022/03/18 10:44:53;;;;;;;7.45;3.55;;;;;;;4.29;38.08;103384.67;1775278;80;20084;-73
2022/03/18 10:47:32;;;;;;;4.40;3.12;;;;;;;4.57;37.60;103388.84;1775341;80;21055;-73
2022/03/18 10:50:29;;;;;;;8.08;4.22;;;;;;;4.58;36.85;103381.51;1775122;80;20892;-74
2022/03/18 10:53:03;;;;;;;4.92;3.05;;;;;;;4.47;37.17;103388.30;1775390;80;20967;-74
2022/03/18 10:55:35;;;;;;;4.03;2.83;;;;;;;4.13;37.73;103384.91;1775271;80;21465;-74
2022/03/18 10:58:10;;;;;;;6.17;3.12;;;;;;;3.87;38.41;103380.72;1775357;80;20845;-72
2022/03/18 11:00:41;;;;;;;5.80;4.15;;;;;;;3.63;38.94;103385.16;1775371;80;21745;-72
2022/03/18 11:03:08;;;;;;;3.27;2.92;;;;;;;3.53;39.14;103388.06;1775407;80;21418;-73
2022/03/18 11:05:43;;;;;;;6.08;3.55;;;;;;;3.40;38.74;103386.55;1775272;80;20971;-73
2022/03/18 11:08:17;;;;;;;5.33;3.35;;;;;;;3.20;38.91;103381.96;1775249;80;20897;-72
2022/03/18 11:11:11;;;;;;;9.35;3.27;;;;;;;2.97;40.28;103390.65;1775546;80;21465;-73
2022/03/18 11:14:04;;;;;;;4.90;2.95;;;;;;;2.94;40.94;103386.72;1775314;80;21010;-73
2022/03/18 11:16:38;;;;;;;5.72;3.08;;;;;;;2.99;41.37;103381.18;1775511;80;20880;-73
2022/03/18 11:19:10;;;;;;;3.65;3.35;;;;;;;3.09;41.24;103391.26;1775184;80;21030;-72
2022/03/18 11:21:40;;;;;;;8.03;4.35;;;;;;;3.12;41.35;103382.25;1774890;80;21450;-73
2022/03/18 11:24:22;;;;;;;7.60;3.20;;;;;;;3.01;41.10;103388.98;1775377;80;21456;-74
2022/03/18 11:26:50;;;;;;;7.58;3.65;;;;;;;2.80;41.35;103386.50;1775460;80;21373;-74
2022/03/18 11:29:24;;;;;;;7.10;3.65;;;;;;;2.49;41.63;103395.02;1775201;80;20892;-74
2022/03/18 11:32:16;;;;;;;5.42;3.17;;;;;;;2.38;41.95;103394.34;1775333;80;20916;-74
2022/03/18 11:34:53;;;;;;;5.03;2.55;;;;;;;2.49;41.31;103394.15;1775261;80;20936;-73
2022/03/18 11:37:20;;;;;;;5.50;3.10;;;;;;;2.80;41.23;103387.80;1775516;80;20848;-75
2022/03/18 11:39:47;;;;;;;5.67;3.05;;;;;;;2.98;40.46;103386.33;1775672;80;21142;-74
2022/03/18 11:42:19;;;;;;;5.58;3.22;;;;;;;2.83;40.19;103381.36;1775307;80;21897;-73
2022/03/18 11:44:56;;;;;;;6.17;3.50;;;;;;;2.56;40.83;103379.59;1775273;80;20976;-73
2022/03/18 11:47:31;;;;;;;5.00;3.05;;;;;;;2.56;41.16;103378.30;1775266;80;21387;-72
2022/03/18 11:50:01;;;;;;;6.75;3.77;;;;;;;2.60;40.81;103377.48;1775247;80;20900;-73
2022/03/18 11:52:28;;;;;;;3.95;2.95;;;;;;;2.47;40.83;103381.59;1775225;80;21284;-73
2022/03/18 11:55:08;;;;;;;3.92;3.02;;;;;;;2.40;40.48;103380.61;1775537;80;21390;-74
2022/03/18 11:57:45;;;;;;;6.00;2.95;;;;;;;2.39;40.27;103372.37;1775191;80;21465;-72